createdAt,value
2018-10-16T00:01:16.525Z,6.10
2018-10-16T00:06:20.918Z,7.27
2018-10-16T00:11:25.526Z,5.93
2018-10-16T00:16:29.368Z,5.60
2018-10-16T00:21:33.198Z,7.43
2018-10-16T00:26:37.065Z,5.97
2018-10-16T00:31:42.225Z,6.33
2018-10-16T00:36:46.440Z,6.80
2018-10-16T00:41:53.587Z,6.33
2018-10-16T00:46:57.509Z,6.93
2018-10-16T00:52:01.394Z,7.20
2018-10-16T00:57:06.256Z,6.93
2018-10-16T01:02:10.113Z,8.10
2018-10-16T01:07:13.962Z,5.80
2018-10-16T01:12:17.809Z,6.90
2018-10-16T01:17:21.677Z,8.70
2018-10-16T01:22:25.523Z,8.90
2018-10-16T01:27:29.423Z,7.27
2018-10-16T01:32:33.292Z,8.10
2018-10-16T01:37:37.277Z,6.77
2018-10-16T01:42:41.831Z,7.13
2018-10-16T01:47:45.718Z,8.73
2018-10-16T01:52:49.562Z,8.53
2018-10-16T01:57:53.380Z,7.67
2018-10-16T02:02:57.226Z,7.43
2018-10-16T02:08:01.945Z,8.73
2018-10-16T02:13:05.923Z,6.53
2018-10-16T02:18:11.596Z,7.50
2018-10-16T02:23:17.187Z,9.07
2018-10-16T02:28:22.964Z,7.67
2018-10-16T02:33:26.991Z,7.70
2018-10-16T02:38:30.855Z,9.07
2018-10-16T02:43:34.797Z,9.87
2018-10-16T02:48:38.689Z,9.23
2018-10-16T02:53:42.853Z,9.33
2018-10-16T02:58:46.727Z,9.17
2018-10-16T03:03:51.069Z,9.83
2018-10-16T03:08:54.912Z,7.97
2018-10-16T03:13:59.354Z,8.53
2018-10-16T03:19:04.622Z,10.23
2018-10-16T03:24:09.211Z,9.30
2018-10-16T03:29:13.011Z,8.80
2018-10-16T03:34:16.884Z,9.60
2018-10-16T03:39:20.706Z,8.63
2018-10-16T03:44:24.539Z,9.80
2018-10-16T03:49:28.438Z,9.93
2018-10-16T03:54:32.270Z,9.87
2018-10-16T03:59:37.588Z,11.07
2018-10-16T04:04:41.441Z,9.83
2018-10-16T04:09:45.318Z,10.17
2018-10-16T04:14:49.151Z,8.80
2018-10-16T04:19:54.361Z,10.10
2018-10-16T04:24:59.031Z,11.40
2018-10-16T04:30:03.190Z,10.43
2018-10-16T04:35:14.187Z,9.00
2018-10-16T04:40:18.435Z,9.83
2018-10-16T04:45:23.837Z,11.93
2018-10-16T04:50:27.727Z,8.00
2018-10-16T04:55:33.567Z,7.83
2018-10-16T05:00:37.481Z,8.60
2018-10-16T05:05:41.586Z,9.10
2018-10-16T05:10:45.569Z,10.03
2018-10-16T05:15:49.598Z,10.60
2018-10-16T05:20:54.300Z,8.57
2018-10-16T05:25:58.285Z,8.90
2018-10-16T05:31:03.288Z,8.77
2018-10-16T05:36:07.288Z,9.33
2018-10-16T05:41:11.264Z,10.20
2018-10-16T05:46:15.266Z,10.40
2018-10-16T05:51:20.197Z,8.23
2018-10-16T05:56:25.317Z,11.07
2018-10-16T06:01:29.502Z,8.00
2018-10-16T06:06:38.824Z,10.50
2018-10-16T06:11:42.808Z,8.67
2018-10-16T06:16:49.493Z,9.93
2018-10-16T06:21:55.020Z,9.20
2018-10-16T06:26:59.528Z,10.80
2018-10-16T06:32:06.054Z,8.50
2018-10-16T06:37:12.077Z,10.67
2018-10-16T06:42:15.976Z,9.60
2018-10-16T06:47:19.908Z,7.67
2018-10-16T06:52:23.754Z,7.53
2018-10-16T06:57:29.013Z,7.27
2018-10-16T07:02:32.929Z,9.60
2018-10-16T07:07:36.821Z,9.53
2018-10-16T07:12:40.702Z,10.40
2018-10-16T07:17:44.799Z,9.80
2018-10-16T07:22:49.895Z,11.27
2018-10-16T07:27:53.784Z,10.53
2018-10-16T07:32:58.507Z,9.50
2018-10-16T07:38:03.540Z,9.57
2018-10-16T07:43:07.469Z,10.27
2018-10-16T07:48:11.431Z,9.90
2018-10-16T07:53:15.306Z,8.77
2018-10-16T07:58:19.283Z,9.00
2018-10-16T08:03:23.393Z,9.40
2018-10-16T08:08:28.905Z,8.97
2018-10-16T08:13:32.728Z,9.63
2018-10-16T08:18:36.598Z,8.57
2018-10-16T08:23:40.543Z,9.53
2018-10-16T08:28:45.748Z,9.10
2018-10-16T08:33:50.943Z,9.63
2018-10-16T08:39:00.500Z,8.83
2018-10-16T08:44:23.684Z,8.67
2018-10-16T08:49:39.315Z,8.63
2018-10-16T08:54:43.246Z,8.30
2018-10-16T08:59:48.104Z,8.43
2018-10-16T09:04:53.486Z,6.13
2018-10-16T09:09:57.433Z,8.10
2018-10-16T09:15:01.363Z,8.07
2018-10-16T09:20:05.791Z,8.20
2018-10-16T09:25:10.272Z,7.40
2018-10-16T09:30:14.913Z,7.87
2018-10-16T09:35:18.791Z,7.20
2018-10-16T09:40:22.772Z,6.10
2018-10-16T09:45:26.859Z,6.53
2018-10-16T09:50:30.787Z,7.20
2018-10-16T09:55:34.796Z,6.87
2018-10-16T10:00:44.009Z,6.50
2018-10-16T10:05:47.962Z,7.27
2018-10-16T10:10:52.684Z,6.77
2018-10-16T10:15:56.649Z,7.00
2018-10-16T10:21:00.742Z,6.87
2018-10-16T10:26:05.161Z,6.47
2018-10-16T10:31:09.039Z,5.67
2018-10-16T10:36:13.105Z,6.60
2018-10-16T10:41:17.093Z,6.77
2018-10-16T10:46:20.926Z,6.43
2018-10-16T10:51:27.081Z,6.83
2018-10-16T10:56:30.782Z,6.40
2018-10-16T11:01:35.034Z,6.93
2018-10-16T11:06:38.971Z,6.97
2018-10-16T11:11:48.510Z,7.17
2018-10-16T11:16:52.363Z,7.80
2018-10-16T11:21:56.352Z,7.20
2018-10-16T11:27:00.282Z,7.90
2018-10-16T11:32:04.662Z,7.57
2018-10-16T11:37:08.703Z,7.63
2018-10-16T11:42:12.761Z,6.50
2018-10-16T11:47:17.566Z,7.10
2018-10-16T11:52:21.528Z,5.90
2018-10-16T11:57:25.358Z,6.77
2018-10-16T12:02:29.287Z,6.40
2018-10-16T12:07:34.926Z,6.83
2018-10-16T12:12:38.838Z,5.50
2018-10-16T12:17:48.873Z,5.80
2018-10-16T12:23:30.027Z,6.73
2018-10-16T12:28:34.062Z,5.90
2018-10-16T12:33:38.325Z,6.73
2018-10-16T12:38:42.452Z,6.40
2018-10-16T12:43:47.270Z,6.00
2018-10-16T12:48:51.105Z,6.03
2018-10-16T12:53:55.034Z,5.87
2018-10-16T12:58:58.984Z,5.57
2018-10-16T13:04:02.978Z,6.30
2018-10-16T13:09:09.995Z,6.07
2018-10-16T13:14:13.875Z,6.17
2018-10-16T13:19:17.926Z,5.63
2018-10-16T13:24:22.586Z,6.17
2018-10-16T13:29:26.624Z,6.00
2018-10-16T13:34:31.008Z,5.30
2018-10-16T13:39:34.867Z,5.97
2018-10-16T13:44:38.721Z,5.80
2018-10-16T13:49:43.294Z,5.70
2018-10-16T13:54:48.328Z,5.73
2018-10-16T13:59:52.527Z,6.00
2018-10-16T14:04:56.582Z,5.60
2018-10-16T14:10:00.502Z,5.47
2018-10-16T14:15:05.448Z,5.07
2018-10-16T14:20:10.051Z,5.67
2018-10-16T14:25:15.556Z,5.87
2018-10-16T14:30:19.935Z,6.00
2018-10-16T14:35:23.788Z,6.47
2018-10-16T14:40:27.797Z,6.80
2018-10-16T14:45:33.301Z,6.23
2018-10-16T14:50:37.157Z,7.03
2018-10-16T14:55:41.041Z,6.27
2018-10-16T15:00:44.906Z,5.80
2018-10-16T15:05:49.052Z,6.87
2018-10-16T15:10:53.510Z,6.63
2018-10-16T15:15:57.392Z,6.57
2018-10-16T15:21:01.304Z,6.00
2018-10-16T15:26:05.707Z,6.20
2018-10-16T15:31:10.195Z,5.53
2018-10-16T15:36:14.632Z,6.00
2018-10-16T15:41:18.804Z,7.17
2018-10-16T15:46:22.679Z,5.83
2018-10-16T15:51:26.778Z,5.90
2018-10-16T15:56:31.182Z,5.70
2018-10-16T16:01:35.499Z,5.87
2018-10-16T16:06:39.388Z,5.70
2018-10-16T16:11:43.295Z,6.03
2018-10-16T16:16:47.284Z,7.10
2018-10-16T16:21:51.667Z,6.90
2018-10-16T16:26:56.431Z,6.63
2018-10-16T16:32:00.389Z,7.33
2018-10-16T16:37:04.567Z,6.80
2018-10-16T16:42:08.515Z,7.20
2018-10-16T16:47:13.683Z,6.97
2018-10-16T16:52:26.381Z,7.50
2018-10-16T16:57:30.561Z,8.03
2018-10-16T17:02:34.721Z,6.87
2018-10-16T17:07:38.653Z,7.07
2018-10-16T17:12:42.803Z,7.60
2018-10-16T17:17:47.290Z,7.40
2018-10-16T17:22:52.718Z,7.63
2018-10-16T17:27:56.942Z,8.33
2018-10-16T17:33:00.919Z,8.00
2018-10-16T17:38:04.940Z,7.43
2018-10-16T17:43:08.946Z,7.67
2018-10-16T17:48:12.936Z,7.53
2018-10-16T17:53:16.884Z,7.57
2018-10-16T17:58:21.275Z,8.10
2018-10-16T18:03:26.260Z,8.40
2018-10-16T18:08:31.031Z,8.30
2018-10-16T18:13:35.122Z,8.10
2018-10-16T18:18:39.238Z,8.70
2018-10-16T18:23:43.326Z,9.10
2018-10-16T18:28:47.281Z,8.50
2018-10-16T18:33:52.019Z,10.47
2018-10-16T18:38:56.465Z,8.33
2018-10-16T18:44:01.438Z,9.13
2018-10-16T18:49:07.286Z,9.27
2018-10-16T18:54:12.496Z,8.67
2018-10-16T18:59:16.585Z,8.33
2018-10-16T19:04:20.852Z,8.33
2018-10-16T19:09:24.990Z,8.57
2018-10-16T19:14:29.264Z,8.17
2018-10-16T19:19:33.188Z,9.07
2018-10-16T19:24:51.123Z,7.97
2018-10-16T19:29:55.490Z,8.67
2018-10-16T19:35:02.395Z,8.70
2018-10-16T19:40:06.532Z,8.23
2018-10-16T19:45:11.207Z,8.73
2018-10-16T19:50:15.929Z,8.07
2018-10-16T19:55:21.860Z,9.03
2018-10-16T20:00:27.048Z,7.90
2018-10-16T20:05:30.967Z,8.53
2018-10-16T20:10:34.847Z,8.40
2018-10-16T20:15:38.975Z,8.10
2018-10-16T20:20:43.026Z,8.83
2018-10-16T20:25:47.049Z,8.17
2018-10-16T20:30:51.375Z,10.80
2018-10-16T20:35:57.107Z,9.90
2018-10-16T20:41:01.186Z,8.93
2018-10-16T20:46:05.688Z,8.60
2018-10-16T20:51:09.733Z,8.93
2018-10-16T20:56:14.129Z,8.87
2018-10-16T21:01:18.137Z,8.43
2018-10-16T21:06:22.362Z,8.20
2018-10-16T21:11:26.081Z,8.70
2018-10-16T21:16:31.457Z,9.03
2018-10-16T21:21:35.347Z,8.13
2018-10-16T21:26:39.294Z,8.50
2018-10-16T21:31:43.557Z,8.80
2018-10-16T21:36:47.466Z,9.07
2018-10-16T21:41:51.845Z,9.33
2018-10-16T21:46:55.760Z,8.67
2018-10-16T21:51:59.612Z,8.40
2018-10-16T21:57:04.768Z,7.70
2018-10-16T22:02:13.966Z,7.70
2018-10-16T22:07:17.816Z,8.47
2018-10-16T22:12:22.528Z,7.87
2018-10-16T22:17:27.526Z,7.30
2018-10-16T22:22:31.708Z,7.20
2018-10-16T22:27:35.641Z,7.50
2018-10-16T22:32:40.311Z,7.37
2018-10-16T22:37:44.239Z,7.43
2018-10-16T22:42:48.198Z,7.30
2018-10-16T22:47:52.128Z,7.33
2018-10-16T22:52:56.789Z,8.10
2018-10-16T22:58:13.527Z,7.80
2018-10-16T23:03:28.005Z,8.70
2018-10-16T23:08:31.976Z,7.83
2018-10-16T23:13:35.857Z,7.43
2018-10-16T23:18:39.999Z,7.67
2018-10-16T23:23:43.851Z,8.17
2018-10-16T23:28:47.790Z,8.17
2018-10-16T23:33:51.854Z,8.17
2018-10-16T23:38:55.760Z,7.60
2018-10-16T23:43:59.658Z,7.83
2018-10-16T23:49:04.759Z,8.20
2018-10-16T23:54:08.721Z,7.90
2018-10-16T23:59:13.223Z,7.60
